Station History

Weather Underground - logo

Station Historical Data
Daily Summary for Nil La, TWC- Units:  Both    English   Metric
« Previous Day
Next Day »
Daily Weekly Monthly Yearly Custom
  High: Low: Average:
Temperature: 101.8 °F /  38.8 °C 66.0 °F /  18.9 °C 84.9 °F /  29.4 °C
Dew Point: 66.2 °F /  19 °C 51.9 °F /  11.1 °C 59 °F /  15 °C
Humidity: 70 % 20 % 45 %
Wind Speed: 4.6 mph /  7.4 km/h - 1.1 mph /  1.8 km/h
Wind Gust: 2.6 mph /  4.2 km/h - -
Wind:- - SW
Pressure: 29.74 in /  1007 hPa 29.61 in /  1002.6 hPa -
Precipitation: 0.00 in /  0 mm    
Historical Graphs
 
 
Tabular Data for Nil La, TWC-
Time Temperature Dew Point Pressure Wind Wind Speed Wind Gust Humidity Rainfall Rate (Hourly)
00:04 73.9 °F /  23.3 °C 60.5 °F /  15.8 °C 29.72 in /  1006.3 hPa Calm     63 % 0.00 in /  0 mm
00:09 73.6 °F /  23.1 °C 61.1 °F /  16.2 °C 29.72 in /  1006.3 hPa Calm     65 % 0.00 in /  0 mm
00:14 73.2 °F /  22.9 °C 61.2 °F /  16.2 °C 29.72 in /  1006.3 hPa Calm     66 % 0.00 in /  0 mm
00:19 73.0 °F /  22.8 °C 60.5 °F /  15.8 °C 29.72 in /  1006.3 hPa Calm     65 % 0.00 in /  0 mm
00:24 72.9 °F /  22.7 °C 60.0 °F /  15.6 °C 29.72 in /  1006.3 hPa Calm     64 % 0.00 in /  0 mm
00:29 72.8 °F /  22.7 °C 61.2 °F /  16.2 °C 29.72 in /  1006.3 hPa Calm     67 % 0.00 in /  0 mm
00:34 72.3 °F /  22.4 °C 60.3 °F /  15.7 °C 29.72 in /  1006.3 hPa Calm     66 % 0.00 in /  0 mm
00:39 72.0 °F /  22.2 °C 60.4 °F /  15.8 °C 29.71 in /  1006 hPa Calm     67 % 0.00 in /  0 mm
00:44 71.8 °F /  22.1 °C 60.2 °F /  15.7 °C 29.71 in /  1006 hPa Calm     67 % 0.00 in /  0 mm
00:49 71.7 °F /  22.1 °C 60.2 °F /  15.7 °C 29.71 in /  1006 hPa Calm     67 % 0.00 in /  0 mm
00:54 71.6 °F /  22 °C 60.1 °F /  15.6 °C 29.71 in /  1006 hPa Calm     67 % 0.00 in /  0 mm
00:59 71.6 °F /  22 °C 59.2 °F /  15.1 °C 29.71 in /  1006 hPa ESE 1.2 mph /  1.9 km/h   65 % 0.00 in /  0 mm
01:04 71.6 °F /  22 °C 58.8 °F /  14.9 °C 29.71 in /  1006 hPa Calm     64 % 0.00 in /  0 mm
01:09 71.7 °F /  22.1 °C 58.9 °F /  14.9 °C 29.71 in /  1006 hPa Calm     64 % 0.00 in /  0 mm
01:14 71.7 °F /  22.1 °C 59.7 °F /  15.4 °C 29.71 in /  1006 hPa Calm   0.1 mph /  0.2 km/h 66 % 0.00 in /  0 mm
01:19 71.2 °F /  21.8 °C 59.7 °F /  15.4 °C 29.71 in /  1006 hPa Calm     67 % 0.00 in /  0 mm
01:24 71.1 °F /  21.7 °C 60.0 °F /  15.6 °C 29.71 in /  1006 hPa Calm     68 % 0.00 in /  0 mm
01:29 71.1 °F /  21.7 °C 59.6 °F /  15.3 °C 29.71 in /  1006 hPa Calm     67 % 0.00 in /  0 mm
01:34 71.0 °F /  21.7 °C 59.9 °F /  15.5 °C 29.71 in /  1006 hPa Calm     68 % 0.00 in /  0 mm
01:39 70.7 °F /  21.5 °C 59.2 °F /  15.1 °C 29.71 in /  1006 hPa Calm     67 % 0.00 in /  0 mm
01:44 70.8 °F /  21.6 °C 59.3 °F /  15.2 °C 29.71 in /  1006 hPa Calm     67 % 0.00 in /  0 mm
01:49 70.7 °F /  21.5 °C 58.8 °F /  14.9 °C 29.71 in /  1006 hPa Calm     66 % 0.00 in /  0 mm
01:54 70.6 °F /  21.4 °C 57.8 °F /  14.3 °C 29.71 in /  1006 hPa Calm     64 % 0.00 in /  0 mm
01:59 70.6 °F /  21.4 °C 58.7 °F /  14.8 °C 29.71 in /  1006 hPa Calm     66 % 0.00 in /  0 mm
02:04 70.4 °F /  21.3 °C 58.5 °F /  14.7 °C 29.71 in /  1006 hPa Calm     66 % 0.00 in /  0 mm
02:09 70.0 °F /  21.1 °C 58.5 °F /  14.7 °C 29.71 in /  1006 hPa Calm     67 % 0.00 in /  0 mm
02:14 69.8 °F /  21 °C 58.3 °F /  14.6 °C 29.71 in /  1006 hPa Calm     67 % 0.00 in /  0 mm
02:19 69.8 °F /  21 °C 57.5 °F /  14.2 °C 29.71 in /  1006 hPa Calm     65 % 0.00 in /  0 mm
02:24 69.7 °F /  20.9 °C 57.0 °F /  13.9 °C 29.71 in /  1006 hPa Calm     64 % 0.00 in /  0 mm
02:29 69.9 °F /  21.1 °C 57.2 °F /  14 °C 29.70 in /  1005.6 hPa Calm     64 % 0.00 in /  0 mm
02:34 69.8 °F /  21 °C 57.1 °F /  13.9 °C 29.70 in /  1005.6 hPa Calm     64 % 0.00 in /  0 mm
02:39 69.7 °F /  20.9 °C 57.0 °F /  13.9 °C 29.70 in /  1005.6 hPa Calm     64 % 0.00 in /  0 mm
02:44 69.7 °F /  20.9 °C 56.5 °F /  13.6 °C 29.70 in /  1005.6 hPa Calm     63 % 0.00 in /  0 mm
02:49 69.7 °F /  20.9 °C 56.5 °F /  13.6 °C 29.70 in /  1005.6 hPa Calm     63 % 0.00 in /  0 mm
02:54 69.6 °F /  20.9 °C 56.9 °F /  13.8 °C 29.70 in /  1005.6 hPa Calm     64 % 0.00 in /  0 mm
02:59 69.5 °F /  20.8 °C 56.8 °F /  13.8 °C 29.70 in /  1005.6 hPa Calm   0.2 mph /  0.3 km/h 64 % 0.00 in /  0 mm
03:04 69.3 °F /  20.7 °C 57.0 °F /  13.9 °C 29.70 in /  1005.6 hPa Calm     65 % 0.00 in /  0 mm
03:09 69.3 °F /  20.7 °C 56.2 °F /  13.4 °C 29.70 in /  1005.6 hPa SE 1.2 mph /  1.9 km/h 0.1 mph /  0.2 km/h 63 % 0.00 in /  0 mm
03:14 69.3 °F /  20.7 °C 57.0 °F /  13.9 °C 29.70 in /  1005.6 hPa Calm     65 % 0.00 in /  0 mm
03:19 68.8 °F /  20.4 °C 56.6 °F /  13.7 °C 29.70 in /  1005.6 hPa Calm     65 % 0.00 in /  0 mm
03:24 68.3 °F /  20.2 °C 56.5 °F /  13.6 °C 29.70 in /  1005.6 hPa Calm     66 % 0.00 in /  0 mm
03:29 68.1 °F /  20.1 °C 57.1 °F /  13.9 °C 29.70 in /  1005.6 hPa Calm     68 % 0.00 in /  0 mm
03:34 67.9 °F /  19.9 °C 56.9 °F /  13.8 °C 29.70 in /  1005.6 hPa Calm     68 % 0.00 in /  0 mm
03:39 67.7 °F /  19.8 °C 56.3 °F /  13.5 °C 29.70 in /  1005.6 hPa Calm     67 % 0.00 in /  0 mm
03:44 67.7 °F /  19.8 °C 57.6 °F /  14.2 °C 29.70 in /  1005.6 hPa Calm     70 % 0.00 in /  0 mm
03:49 67.5 °F /  19.7 °C 57.0 °F /  13.9 °C 29.70 in /  1005.6 hPa Calm     69 % 0.00 in /  0 mm
03:54 67.5 °F /  19.7 °C 57.4 °F /  14.1 °C 29.70 in /  1005.6 hPa Calm     70 % 0.00 in /  0 mm
03:59 67.2 °F /  19.6 °C 56.7 °F /  13.7 °C 29.70 in /  1005.6 hPa Calm     69 % 0.00 in /  0 mm
04:04 67.0 °F /  19.4 °C 56.9 °F /  13.8 °C 29.70 in /  1005.6 hPa Calm     70 % 0.00 in /  0 mm
04:09 66.8 °F /  19.3 °C 56.7 °F /  13.7 °C 29.70 in /  1005.6 hPa Calm     70 % 0.00 in /  0 mm
04:14 66.7 °F /  19.3 °C 56.6 °F /  13.7 °C 29.70 in /  1005.6 hPa Calm     70 % 0.00 in /  0 mm
04:19 66.5 °F /  19.2 °C 56.4 °F /  13.6 °C 29.70 in /  1005.6 hPa Calm     70 % 0.00 in /  0 mm
04:24 66.4 °F /  19.1 °C 55.9 °F /  13.3 °C 29.70 in /  1005.6 hPa Calm     69 % 0.00 in /  0 mm
04:29 66.6 °F /  19.2 °C 55.7 °F /  13.2 °C 29.70 in /  1005.6 hPa Calm     68 % 0.00 in /  0 mm
04:34 66.8 °F /  19.3 °C 55.9 °F /  13.3 °C 29.70 in /  1005.6 hPa Calm     68 % 0.00 in /  0 mm
04:39 67.2 °F /  19.6 °C 55.9 °F /  13.3 °C 29.70 in /  1005.6 hPa Calm     67 % 0.00 in /  0 mm
04:44 67.2 °F /  19.6 °C 55.5 °F /  13.1 °C 29.70 in /  1005.6 hPa Calm     66 % 0.00 in /  0 mm
04:49 66.9 °F /  19.4 °C 55.2 °F /  12.9 °C 29.70 in /  1005.6 hPa Calm     66 % 0.00 in /  0 mm
04:54 66.7 °F /  19.3 °C 55.8 °F /  13.2 °C 29.70 in /  1005.6 hPa Calm     68 % 0.00 in /  0 mm
04:59 66.6 °F /  19.2 °C 55.7 °F /  13.2 °C 29.70 in /  1005.6 hPa Calm     68 % 0.00 in /  0 mm
05:04 66.5 °F /  19.2 °C 55.2 °F /  12.9 °C 29.70 in /  1005.6 hPa Calm     67 % 0.00 in /  0 mm
05:09 66.6 °F /  19.2 °C 55.7 °F /  13.2 °C 29.70 in /  1005.6 hPa Calm     68 % 0.00 in /  0 mm
05:14 66.4 °F /  19.1 °C 55.1 °F /  12.8 °C 29.70 in /  1005.6 hPa Calm     67 % 0.00 in /  0 mm
05:19 66.3 °F /  19.1 °C 55.0 °F /  12.8 °C 29.70 in /  1005.6 hPa Calm     67 % 0.00 in /  0 mm
05:24 66.2 °F /  19 °C 55.3 °F /  12.9 °C 29.70 in /  1005.6 hPa Calm     68 % 0.00 in /  0 mm
05:29 66.0 °F /  18.9 °C 55.1 °F /  12.8 °C 29.70 in /  1005.6 hPa Calm     68 % 0.00 in /  0 mm
05:34 66.0 °F /  18.9 °C 54.7 °F /  12.6 °C 29.71 in /  1006 hPa Calm     67 % 0.00 in /  0 mm
05:39 66.1 °F /  18.9 °C 55.6 °F /  13.1 °C 29.71 in /  1006 hPa Calm     69 % 0.00 in /  0 mm
05:44 66.2 °F /  19 °C 54.5 °F /  12.5 °C 29.71 in /  1006 hPa Calm     66 % 0.00 in /  0 mm
05:49 66.3 °F /  19.1 °C 54.6 °F /  12.6 °C 29.71 in /  1006 hPa Calm     66 % 0.00 in /  0 mm
05:54 66.4 °F /  19.1 °C 54.7 °F /  12.6 °C 29.71 in /  1006 hPa Calm     66 % 0.00 in /  0 mm
05:59 66.7 °F /  19.3 °C 54.6 °F /  12.6 °C 29.72 in /  1006.3 hPa Calm     65 % 0.00 in /  0 mm
06:04 66.8 °F /  19.3 °C 55.5 °F /  13.1 °C 29.72 in /  1006.3 hPa Calm     67 % 0.00 in /  0 mm
06:09 66.8 °F /  19.3 °C 55.1 °F /  12.8 °C 29.71 in /  1006 hPa Calm     66 % 0.00 in /  0 mm
06:14 67.0 °F /  19.4 °C 55.7 °F /  13.2 °C 29.71 in /  1006 hPa Calm     67 % 0.00 in /  0 mm
06:19 67.1 °F /  19.5 °C 57.0 °F /  13.9 °C 29.72 in /  1006.3 hPa Calm     70 % 0.00 in /  0 mm
06:24 67.1 °F /  19.5 °C 55.8 °F /  13.2 °C 29.71 in /  1006 hPa Calm     67 % 0.00 in /  0 mm
06:29 67.4 °F /  19.7 °C 54.8 °F /  12.7 °C 29.71 in /  1006 hPa Calm     64 % 0.00 in /  0 mm
06:34 67.9 °F /  19.9 °C 56.1 °F /  13.4 °C 29.72 in /  1006.3 hPa Calm     66 % 0.00 in /  0 mm
06:39 68.4 °F /  20.2 °C 55.7 °F /  13.2 °C 29.72 in /  1006.3 hPa Calm     64 % 0.00 in /  0 mm
06:44 69.7 °F /  20.9 °C 56.5 °F /  13.6 °C 29.72 in /  1006.3 hPa Calm     63 % 0.00 in /  0 mm
06:49 71.3 °F /  21.8 °C 56.7 °F /  13.7 °C 29.72 in /  1006.3 hPa Calm     60 % 0.00 in /  0 mm
06:54 72.8 °F /  22.7 °C 57.2 °F /  14 °C 29.73 in /  1006.7 hPa SE 1.2 mph /  1.9 km/h   58 % 0.00 in /  0 mm
06:59 73.8 °F /  23.2 °C 57.1 °F /  13.9 °C 29.73 in /  1006.7 hPa Calm     56 % 0.00 in /  0 mm
07:04 74.7 °F /  23.7 °C 57.5 °F /  14.2 °C 29.73 in /  1006.7 hPa SE 1.2 mph /  1.9 km/h   55 % 0.00 in /  0 mm
07:09 75.3 °F /  24.1 °C 57.0 °F /  13.9 °C 29.73 in /  1006.7 hPa SE 1.2 mph /  1.9 km/h   53 % 0.00 in /  0 mm
07:14 75.6 °F /  24.2 °C 56.7 °F /  13.7 °C 29.73 in /  1006.7 hPa South 1.2 mph /  1.9 km/h 0.2 mph /  0.3 km/h 52 % 0.00 in /  0 mm
07:19 76.0 °F /  24.4 °C 57.1 °F /  13.9 °C 29.73 in /  1006.7 hPa Calm   0.1 mph /  0.2 km/h 52 % 0.00 in /  0 mm
07:24 76.4 °F /  24.7 °C 57.5 °F /  14.2 °C 29.73 in /  1006.7 hPa Calm     52 % 0.00 in /  0 mm
07:29 77.1 °F /  25.1 °C 56.5 °F /  13.6 °C 29.73 in /  1006.7 hPa SSE 1.2 mph /  1.9 km/h 0.2 mph /  0.3 km/h 49 % 0.00 in /  0 mm
07:34 77.6 °F /  25.3 °C 57.5 °F /  14.2 °C 29.74 in /  1007 hPa Calm     50 % 0.00 in /  0 mm
07:39 78.3 °F /  25.7 °C 58.1 °F /  14.5 °C 29.74 in /  1007 hPa Calm     50 % 0.00 in /  0 mm
07:44 78.8 °F /  26 °C 57.4 °F /  14.1 °C 29.74 in /  1007 hPa SSE 1.2 mph /  1.9 km/h   48 % 0.00 in /  0 mm
07:49 79.2 °F /  26.2 °C 57.2 °F /  14 °C 29.73 in /  1006.7 hPa Calm     47 % 0.00 in /  0 mm
07:54 79.3 °F /  26.3 °C 57.3 °F /  14.1 °C 29.74 in /  1007 hPa SSE 1.2 mph /  1.9 km/h   47 % 0.00 in /  0 mm
07:59 80.4 °F /  26.9 °C 57.7 °F /  14.3 °C 29.73 in /  1006.7 hPa Calm     46 % 0.00 in /  0 mm
08:04 80.4 °F /  26.9 °C 59.5 °F /  15.3 °C 29.73 in /  1006.7 hPa Calm     49 % 0.00 in /  0 mm
08:09 79.8 °F /  26.6 °C 57.8 °F /  14.3 °C 29.74 in /  1007 hPa Calm   0.3 mph /  0.5 km/h 47 % 0.00 in /  0 mm
08:14 80.2 °F /  26.8 °C 56.9 °F /  13.8 °C 29.74 in /  1007 hPa SE 1.2 mph /  1.9 km/h 0.6 mph /  1 km/h 45 % 0.00 in /  0 mm
08:19 81.2 °F /  27.3 °C 57.2 °F /  14 °C 29.74 in /  1007 hPa SSE 1.2 mph /  1.9 km/h 0.2 mph /  0.3 km/h 44 % 0.00 in /  0 mm
08:24 82.0 °F /  27.8 °C 57.9 °F /  14.4 °C 29.74 in /  1007 hPa SSE 1.2 mph /  1.9 km/h   44 % 0.00 in /  0 mm
08:29 82.8 °F /  28.2 °C 59.3 °F /  15.2 °C 29.74 in /  1007 hPa Calm     45 % 0.00 in /  0 mm
08:34 82.1 °F /  27.8 °C 56.7 °F /  13.7 °C 29.74 in /  1007 hPa NNW 1.2 mph /  1.9 km/h 0.4 mph /  0.6 km/h 42 % 0.00 in /  0 mm
08:39 82.6 °F /  28.1 °C 57.8 °F /  14.3 °C 29.74 in /  1007 hPa Calm   0.1 mph /  0.2 km/h 43 % 0.00 in /  0 mm
08:44 83.3 °F /  28.5 °C 58.5 °F /  14.7 °C 29.74 in /  1007 hPa WNW 1.2 mph /  1.9 km/h   43 % 0.00 in /  0 mm
08:49 83.6 °F /  28.7 °C 57.4 °F /  14.1 °C 29.74 in /  1007 hPa NW 1.2 mph /  1.9 km/h   41 % 0.00 in /  0 mm
08:54 83.7 °F /  28.7 °C 56.8 °F /  13.8 °C 29.74 in /  1007 hPa North 1.2 mph /  1.9 km/h   40 % 0.00 in /  0 mm
08:59 83.3 °F /  28.5 °C 56.5 °F /  13.6 °C 29.74 in /  1007 hPa NW 2.3 mph /  3.7 km/h 0.9 mph /  1.4 km/h 40 % 0.00 in /  0 mm
09:04 83.6 °F /  28.7 °C 58.1 °F /  14.5 °C 29.74 in /  1007 hPa WNW 2.3 mph /  3.7 km/h   42 % 0.00 in /  0 mm
09:09 84.3 °F /  29.1 °C 57.3 °F /  14.1 °C 29.74 in /  1007 hPa South 1.2 mph /  1.9 km/h   40 % 0.00 in /  0 mm
09:14 85.0 °F /  29.4 °C 58.0 °F /  14.4 °C 29.73 in /  1006.7 hPa Calm     40 % 0.00 in /  0 mm
09:19 85.1 °F /  29.5 °C 57.4 °F /  14.1 °C 29.73 in /  1006.7 hPa WNW 1.0 mph /  1.6 km/h   39 % 0.00 in /  0 mm
09:24 85.1 °F /  29.5 °C 56.6 °F /  13.7 °C 29.73 in /  1006.7 hPa North 2.3 mph /  3.7 km/h 0.4 mph /  0.6 km/h 38 % 0.00 in /  0 mm
09:29 85.1 °F /  29.5 °C 58.1 °F /  14.5 °C 29.73 in /  1006.7 hPa East 1.2 mph /  1.9 km/h 0.3 mph /  0.5 km/h 40 % 0.00 in /  0 mm
09:34 85.6 °F /  29.8 °C 58.5 °F /  14.7 °C 29.73 in /  1006.7 hPa SSW 1.0 mph /  1.6 km/h   40 % 0.00 in /  0 mm
09:39 86.1 °F /  30.1 °C 57.5 °F /  14.2 °C 29.73 in /  1006.7 hPa SSW 1.2 mph /  1.9 km/h 1.0 mph /  1.6 km/h 38 % 0.00 in /  0 mm
09:44 86.3 °F /  30.2 °C 57.7 °F /  14.3 °C 29.73 in /  1006.7 hPa NNW 1.2 mph /  1.9 km/h 0.2 mph /  0.3 km/h 38 % 0.00 in /  0 mm
09:49 86.8 °F /  30.4 °C 58.1 °F /  14.5 °C 29.73 in /  1006.7 hPa SE 1.2 mph /  1.9 km/h 0.3 mph /  0.5 km/h 38 % 0.00 in /  0 mm
09:54 87.0 °F /  30.6 °C 57.6 °F /  14.2 °C 29.73 in /  1006.7 hPa South 3.5 mph /  5.6 km/h 1.6 mph /  2.6 km/h 37 % 0.00 in /  0 mm
09:59 87.2 °F /  30.7 °C 58.5 °F /  14.7 °C 29.73 in /  1006.7 hPa South 2.3 mph /  3.7 km/h 0.1 mph /  0.2 km/h 38 % 0.00 in /  0 mm
10:04 87.6 °F /  30.9 °C 58.1 °F /  14.5 °C 29.73 in /  1006.7 hPa ESE 1.2 mph /  1.9 km/h   37 % 0.00 in /  0 mm
10:09 87.5 °F /  30.8 °C 56.5 °F /  13.6 °C 29.73 in /  1006.7 hPa South 2.3 mph /  3.7 km/h 0.7 mph /  1.1 km/h 35 % 0.00 in /  0 mm
10:14 87.6 °F /  30.9 °C 58.9 °F /  14.9 °C 29.72 in /  1006.3 hPa Calm   0.3 mph /  0.5 km/h 38 % 0.00 in /  0 mm
10:19 87.9 °F /  31.1 °C 59.1 °F /  15.1 °C 29.72 in /  1006.3 hPa SE 1.2 mph /  1.9 km/h 0.4 mph /  0.6 km/h 38 % 0.00 in /  0 mm
10:24 88.4 °F /  31.3 °C 58.1 °F /  14.5 °C 29.72 in /  1006.3 hPa SE 1.2 mph /  1.9 km/h 0.1 mph /  0.2 km/h 36 % 0.00 in /  0 mm
10:29 88.6 °F /  31.4 °C 57.4 °F /  14.1 °C 29.72 in /  1006.3 hPa SE 1.2 mph /  1.9 km/h 1.2 mph /  1.9 km/h 35 % 0.00 in /  0 mm
10:34 88.5 °F /  31.4 °C 58.1 °F /  14.5 °C 29.72 in /  1006.3 hPa SSE 2.3 mph /  3.7 km/h 0.5 mph /  0.8 km/h 36 % 0.00 in /  0 mm
10:39 88.9 °F /  31.6 °C 56.9 °F /  13.8 °C 29.72 in /  1006.3 hPa SE 3.5 mph /  5.6 km/h 2.3 mph /  3.7 km/h 34 % 0.00 in /  0 mm
10:44 88.9 °F /  31.6 °C 58.5 °F /  14.7 °C 29.72 in /  1006.3 hPa SSE 4.6 mph /  7.4 km/h 2.1 mph /  3.4 km/h 36 % 0.00 in /  0 mm
10:49 89.0 °F /  31.7 °C 58.6 °F /  14.8 °C 29.72 in /  1006.3 hPa East 2.3 mph /  3.7 km/h 0.2 mph /  0.3 km/h 36 % 0.00 in /  0 mm
10:54 89.6 °F /  32 °C 58.3 °F /  14.6 °C 29.72 in /  1006.3 hPa SSE 2.3 mph /  3.7 km/h 1.4 mph /  2.3 km/h 35 % 0.00 in /  0 mm
10:59 89.9 °F /  32.2 °C 59.4 °F /  15.2 °C 29.72 in /  1006.3 hPa SE 3.5 mph /  5.6 km/h 0.4 mph /  0.6 km/h 36 % 0.00 in /  0 mm
11:04 90.4 °F /  32.4 °C 59.0 °F /  15 °C 29.72 in /  1006.3 hPa South 2.3 mph /  3.7 km/h 0.7 mph /  1.1 km/h 35 % 0.00 in /  0 mm
11:09 91.1 °F /  32.8 °C 58.0 °F /  14.4 °C 29.72 in /  1006.3 hPa ESE 2.3 mph /  3.7 km/h 1.3 mph /  2.1 km/h 33 % 0.00 in /  0 mm
11:14 91.4 °F /  33 °C 58.3 °F /  14.6 °C 29.71 in /  1006 hPa SSE 1.2 mph /  1.9 km/h 1.1 mph /  1.8 km/h 33 % 0.00 in /  0 mm
11:19 91.3 °F /  32.9 °C 59.8 °F /  15.4 °C 29.71 in /  1006 hPa SE 2.3 mph /  3.7 km/h 0.2 mph /  0.3 km/h 35 % 0.00 in /  0 mm
11:24 91.4 °F /  33 °C 58.3 °F /  14.6 °C 29.71 in /  1006 hPa NE 2.3 mph /  3.7 km/h 1.2 mph /  1.9 km/h 33 % 0.00 in /  0 mm
11:29 91.6 °F /  33.1 °C 60.1 °F /  15.6 °C 29.71 in /  1006 hPa NNE 3.5 mph /  5.6 km/h 0.6 mph /  1 km/h 35 % 0.00 in /  0 mm
11:34 91.9 °F /  33.3 °C 59.5 °F /  15.3 °C 29.71 in /  1006 hPa South 3.5 mph /  5.6 km/h 1.8 mph /  2.9 km/h 34 % 0.00 in /  0 mm
11:39 91.8 °F /  33.2 °C 60.3 °F /  15.7 °C 29.71 in /  1006 hPa West 2.3 mph /  3.7 km/h 1.6 mph /  2.6 km/h 35 % 0.00 in /  0 mm
11:44 92.1 °F /  33.4 °C 60.5 °F /  15.8 °C 29.70 in /  1005.6 hPa SSE 2.3 mph /  3.7 km/h   35 % 0.00 in /  0 mm
11:49 92.6 °F /  33.7 °C 59.3 °F /  15.2 °C 29.71 in /  1006 hPa North 2.3 mph /  3.7 km/h 1.0 mph /  1.6 km/h 33 % 0.00 in /  0 mm
11:54 92.8 °F /  33.8 °C 60.3 °F /  15.7 °C 29.71 in /  1006 hPa NNW 1.2 mph /  1.9 km/h 1.3 mph /  2.1 km/h 34 % 0.00 in /  0 mm
11:59 92.9 °F /  33.8 °C 61.2 °F /  16.2 °C 29.70 in /  1005.6 hPa SE 1.0 mph /  1.6 km/h 0.2 mph /  0.3 km/h 35 % 0.00 in /  0 mm
12:04 93.6 °F /  34.2 °C 62.6 °F /  17 °C 29.70 in /  1005.6 hPa SSE 2.3 mph /  3.7 km/h 0.2 mph /  0.3 km/h 36 % 0.00 in /  0 mm
12:09 94.2 °F /  34.6 °C 63.2 °F /  17.3 °C 29.70 in /  1005.6 hPa Calm   0.2 mph /  0.3 km/h 36 % 0.00 in /  0 mm
12:14 94.8 °F /  34.9 °C 62.1 °F /  16.7 °C 29.70 in /  1005.6 hPa ESE 1.2 mph /  1.9 km/h 0.6 mph /  1 km/h 34 % 0.00 in /  0 mm
12:19 95.1 °F /  35.1 °C 61.5 °F /  16.4 °C 29.70 in /  1005.6 hPa ESE 1.2 mph /  1.9 km/h 0.6 mph /  1 km/h 33 % 0.00 in /  0 mm
12:24 95.6 °F /  35.3 °C 61.9 °F /  16.6 °C 29.70 in /  1005.6 hPa NNE 1.0 mph /  1.6 km/h 0.1 mph /  0.2 km/h 33 % 0.00 in /  0 mm
12:29 95.0 °F /  35 °C 60.5 °F /  15.8 °C 29.70 in /  1005.6 hPa NW 2.3 mph /  3.7 km/h 1.3 mph /  2.1 km/h 32 % 0.00 in /  0 mm
12:34 94.4 °F /  34.7 °C 62.5 °F /  16.9 °C 29.70 in /  1005.6 hPa NW 1.2 mph /  1.9 km/h   35 % 0.00 in /  0 mm
12:39 94.6 °F /  34.8 °C 61.0 °F /  16.1 °C 29.70 in /  1005.6 hPa WNW 2.3 mph /  3.7 km/h 0.5 mph /  0.8 km/h 33 % 0.00 in /  0 mm
12:44 94.9 °F /  34.9 °C 62.1 °F /  16.7 °C 29.70 in /  1005.6 hPa WSW 2.3 mph /  3.7 km/h 1.1 mph /  1.8 km/h 34 % 0.00 in /  0 mm
12:49 95.2 °F /  35.1 °C 59.8 °F /  15.4 °C 29.70 in /  1005.6 hPa North 3.5 mph /  5.6 km/h 0.9 mph /  1.4 km/h 31 % 0.00 in /  0 mm
12:54 95.0 °F /  35 °C 62.2 °F /  16.8 °C 29.70 in /  1005.6 hPa NW 1.2 mph /  1.9 km/h 0.7 mph /  1.1 km/h 34 % 0.00 in /  0 mm
12:59 95.1 °F /  35.1 °C 61.5 °F /  16.4 °C 29.69 in /  1005.3 hPa SE 2.3 mph /  3.7 km/h 0.5 mph /  0.8 km/h 33 % 0.00 in /  0 mm
13:04 95.7 °F /  35.4 °C 62.8 °F /  17.1 °C 29.69 in /  1005.3 hPa NW 2.3 mph /  3.7 km/h   34 % 0.00 in /  0 mm
13:09 96.0 °F /  35.6 °C 62.3 °F /  16.8 °C 29.69 in /  1005.3 hPa NW 3.5 mph /  5.6 km/h 0.7 mph /  1.1 km/h 33 % 0.00 in /  0 mm
13:14 96.0 °F /  35.6 °C 62.3 °F /  16.8 °C 29.68 in /  1005 hPa North 2.3 mph /  3.7 km/h 0.9 mph /  1.4 km/h 33 % 0.00 in /  0 mm
13:19 96.2 °F /  35.7 °C 61.6 °F /  16.4 °C 29.68 in /  1005 hPa NW 2.0 mph /  3.2 km/h 0.8 mph /  1.3 km/h 32 % 0.00 in /  0 mm
13:24 96.7 °F /  35.9 °C 61.1 °F /  16.2 °C 29.68 in /  1005 hPa NW 2.3 mph /  3.7 km/h 0.3 mph /  0.5 km/h 31 % 0.00 in /  0 mm
13:29 97.4 °F /  36.3 °C 61.7 °F /  16.5 °C 29.68 in /  1005 hPa NW 2.3 mph /  3.7 km/h 0.6 mph /  1 km/h 31 % 0.00 in /  0 mm
13:34 96.9 °F /  36.1 °C 61.3 °F /  16.3 °C 29.68 in /  1005 hPa NNW 3.5 mph /  5.6 km/h 1.0 mph /  1.6 km/h 31 % 0.00 in /  0 mm
13:39 97.6 °F /  36.4 °C 61.9 °F /  16.6 °C 29.68 in /  1005 hPa NE 2.3 mph /  3.7 km/h 0.4 mph /  0.6 km/h 31 % 0.00 in /  0 mm
13:44 97.5 °F /  36.4 °C 60.9 °F /  16.1 °C 29.68 in /  1005 hPa NW 2.3 mph /  3.7 km/h 0.9 mph /  1.4 km/h 30 % 0.00 in /  0 mm
13:49 97.2 °F /  36.2 °C 60.6 °F /  15.9 °C 29.68 in /  1005 hPa West 2.0 mph /  3.2 km/h 0.8 mph /  1.3 km/h 30 % 0.00 in /  0 mm
13:54 97.7 °F /  36.5 °C 62.0 °F /  16.7 °C 29.68 in /  1005 hPa North 1.0 mph /  1.6 km/h   31 % 0.00 in /  0 mm
13:59 97.9 °F /  36.6 °C 61.2 °F /  16.2 °C 29.68 in /  1005 hPa NE 2.3 mph /  3.7 km/h 0.5 mph /  0.8 km/h 30 % 0.00 in /  0 mm
14:04 98.2 °F /  36.8 °C 60.5 °F /  15.8 °C 29.67 in /  1004.6 hPa North 1.2 mph /  1.9 km/h   29 % 0.00 in /  0 mm
14:09 98.9 °F /  37.2 °C 62.1 °F /  16.7 °C 29.67 in /  1004.6 hPa WSW 2.0 mph /  3.2 km/h 0.7 mph /  1.1 km/h 30 % 0.00 in /  0 mm
14:14 98.9 °F /  37.2 °C 63.0 °F /  17.2 °C 29.67 in /  1004.6 hPa WNW 2.0 mph /  3.2 km/h 0.1 mph /  0.2 km/h 31 % 0.00 in /  0 mm
14:19 99.1 °F /  37.3 °C 63.2 °F /  17.3 °C 29.67 in /  1004.6 hPa North 1.2 mph /  1.9 km/h 0.3 mph /  0.5 km/h 31 % 0.00 in /  0 mm
14:24 99.6 °F /  37.6 °C 61.7 °F /  16.5 °C 29.67 in /  1004.6 hPa WNW 2.3 mph /  3.7 km/h 1.4 mph /  2.3 km/h 29 % 0.00 in /  0 mm
14:29 99.3 °F /  37.4 °C 61.4 °F /  16.3 °C 29.67 in /  1004.6 hPa NW 2.3 mph /  3.7 km/h 0.9 mph /  1.4 km/h 29 % 0.00 in /  0 mm
14:34 99.8 °F /  37.7 °C 64.7 °F /  18.2 °C 29.66 in /  1004.3 hPa South 1.2 mph /  1.9 km/h 0.1 mph /  0.2 km/h 32 % 0.00 in /  0 mm
14:39 100.5 °F /  38.1 °C 63.4 °F /  17.4 °C 29.66 in /  1004.3 hPa NW 1.2 mph /  1.9 km/h 0.4 mph /  0.6 km/h 30 % 0.00 in /  0 mm
14:44 100.7 °F /  38.2 °C 62.6 °F /  17 °C 29.66 in /  1004.3 hPa WNW 2.3 mph /  3.7 km/h 1.5 mph /  2.4 km/h 29 % 0.00 in /  0 mm
14:49 100.3 °F /  37.9 °C 62.3 °F /  16.8 °C 29.66 in /  1004.3 hPa NNW 1.2 mph /  1.9 km/h   29 % 0.00 in /  0 mm
14:54 100.8 °F /  38.2 °C 64.6 °F /  18.1 °C 29.66 in /  1004.3 hPa SSE 2.0 mph /  3.2 km/h 0.5 mph /  0.8 km/h 31 % 0.00 in /  0 mm
14:59 100.8 °F /  38.2 °C 60.7 °F /  15.9 °C 29.66 in /  1004.3 hPa NW 3.5 mph /  5.6 km/h 1.3 mph /  2.1 km/h 27 % 0.00 in /  0 mm
15:04 100.4 °F /  38 °C 63.3 °F /  17.4 °C 29.65 in /  1003.9 hPa WNW 2.3 mph /  3.7 km/h 0.3 mph /  0.5 km/h 30 % 0.00 in /  0 mm
15:09 100.7 °F /  38.2 °C 60.6 °F /  15.9 °C 29.65 in /  1003.9 hPa NNE 3.5 mph /  5.6 km/h 1.4 mph /  2.3 km/h 27 % 0.00 in /  0 mm
15:14 100.8 °F /  38.2 °C 59.6 °F /  15.3 °C 29.65 in /  1003.9 hPa NNW 2.3 mph /  3.7 km/h 0.9 mph /  1.4 km/h 26 % 0.00 in /  0 mm
15:19 101.0 °F /  38.3 °C 61.9 °F /  16.6 °C 29.65 in /  1003.9 hPa SE 1.2 mph /  1.9 km/h 0.7 mph /  1.1 km/h 28 % 0.00 in /  0 mm
15:24 101.5 °F /  38.6 °C 59.1 °F /  15.1 °C 29.65 in /  1003.9 hPa ENE 3.5 mph /  5.6 km/h 0.8 mph /  1.3 km/h 25 % 0.00 in /  0 mm
15:29 101.1 °F /  38.4 °C 58.8 °F /  14.9 °C 29.65 in /  1003.9 hPa WSW 3.5 mph /  5.6 km/h 1.7 mph /  2.7 km/h 25 % 0.00 in /  0 mm
15:34 101.0 °F /  38.3 °C 60.9 °F /  16.1 °C 29.65 in /  1003.9 hPa SW 1.2 mph /  1.9 km/h 0.6 mph /  1 km/h 27 % 0.00 in /  0 mm
15:39 101.3 °F /  38.5 °C 61.1 °F /  16.2 °C 29.65 in /  1003.9 hPa ESE 2.3 mph /  3.7 km/h 0.3 mph /  0.5 km/h 27 % 0.00 in /  0 mm
15:44 101.3 °F /  38.5 °C 59.0 °F /  15 °C 29.65 in /  1003.9 hPa West 3.5 mph /  5.6 km/h 0.8 mph /  1.3 km/h 25 % 0.00 in /  0 mm
15:49 101.2 °F /  38.4 °C 61.0 °F /  16.1 °C 29.65 in /  1003.9 hPa NW 2.3 mph /  3.7 km/h 0.2 mph /  0.3 km/h 27 % 0.00 in /  0 mm
15:54 101.4 °F /  38.6 °C 61.2 °F /  16.2 °C 29.64 in /  1003.6 hPa North 2.3 mph /  3.7 km/h 0.7 mph /  1.1 km/h 27 % 0.00 in /  0 mm
15:59 101.5 °F /  38.6 °C 60.2 °F /  15.7 °C 29.64 in /  1003.6 hPa North 3.5 mph /  5.6 km/h 0.1 mph /  0.2 km/h 26 % 0.00 in /  0 mm
16:04 101.5 °F /  38.6 °C 58.0 °F /  14.4 °C 29.64 in /  1003.6 hPa NW 2.3 mph /  3.7 km/h 1.6 mph /  2.6 km/h 24 % 0.00 in /  0 mm
16:09 101.7 °F /  38.7 °C 59.3 °F /  15.2 °C 29.64 in /  1003.6 hPa NNW 2.3 mph /  3.7 km/h 0.7 mph /  1.1 km/h 25 % 0.00 in /  0 mm
16:14 101.4 °F /  38.6 °C 60.1 °F /  15.6 °C 29.64 in /  1003.6 hPa South 1.2 mph /  1.9 km/h   26 % 0.00 in /  0 mm
16:19 101.8 °F /  38.8 °C 60.5 °F /  15.8 °C 29.64 in /  1003.6 hPa NNW 3.5 mph /  5.6 km/h 1.1 mph /  1.8 km/h 26 % 0.00 in /  0 mm
16:24 101.5 °F /  38.6 °C 60.2 °F /  15.7 °C 29.64 in /  1003.6 hPa SE 2.3 mph /  3.7 km/h 0.1 mph /  0.2 km/h 26 % 0.00 in /  0 mm
16:29 101.8 °F /  38.8 °C 62.6 °F /  17 °C 29.64 in /  1003.6 hPa NNW 1.2 mph /  1.9 km/h 0.5 mph /  0.8 km/h 28 % 0.00 in /  0 mm
16:34 101.8 °F /  38.8 °C 60.5 °F /  15.8 °C 29.64 in /  1003.6 hPa West 2.3 mph /  3.7 km/h 0.2 mph /  0.3 km/h 26 % 0.00 in /  0 mm
16:39 101.6 °F /  38.7 °C 60.3 °F /  15.7 °C 29.63 in /  1003.3 hPa WNW 2.3 mph /  3.7 km/h 0.5 mph /  0.8 km/h 26 % 0.00 in /  0 mm
16:44 100.8 °F /  38.2 °C 57.4 °F /  14.1 °C 29.63 in /  1003.3 hPa WNW 3.5 mph /  5.6 km/h 1.7 mph /  2.7 km/h 24 % 0.00 in /  0 mm
16:49 100.0 °F /  37.8 °C 57.9 °F /  14.4 °C 29.63 in /  1003.3 hPa NW 3.0 mph /  4.8 km/h 1.8 mph /  2.9 km/h 25 % 0.00 in /  0 mm
16:54 99.7 °F /  37.6 °C 56.5 °F /  13.6 °C 29.63 in /  1003.3 hPa WNW 2.3 mph /  3.7 km/h 0.5 mph /  0.8 km/h 24 % 0.00 in /  0 mm
16:59 99.7 °F /  37.6 °C 56.5 °F /  13.6 °C 29.63 in /  1003.3 hPa NW 4.0 mph /  6.4 km/h 2.6 mph /  4.2 km/h 24 % 0.00 in /  0 mm
17:04 99.8 °F /  37.7 °C 57.7 °F /  14.3 °C 29.63 in /  1003.3 hPa WNW 2.3 mph /  3.7 km/h 1.5 mph /  2.4 km/h 25 % 0.00 in /  0 mm
17:09 100.1 °F /  37.8 °C 58.0 °F /  14.4 °C 29.63 in /  1003.3 hPa NW 4.0 mph /  6.4 km/h 2.0 mph /  3.2 km/h 25 % 0.00 in /  0 mm
17:14 99.7 °F /  37.6 °C 56.5 °F /  13.6 °C 29.63 in /  1003.3 hPa West 3.5 mph /  5.6 km/h 1.5 mph /  2.4 km/h 24 % 0.00 in /  0 mm
17:19 99.8 °F /  37.7 °C 55.4 °F /  13 °C 29.63 in /  1003.3 hPa NW 3.5 mph /  5.6 km/h 1.8 mph /  2.9 km/h 23 % 0.00 in /  0 mm
17:24 99.8 °F /  37.7 °C 55.4 °F /  13 °C 29.62 in /  1002.9 hPa NW 3.5 mph /  5.6 km/h 1.3 mph /  2.1 km/h 23 % 0.00 in /  0 mm
17:29 99.7 °F /  37.6 °C 52.8 °F /  11.6 °C 29.62 in /  1002.9 hPa WNW 3.5 mph /  5.6 km/h 1.8 mph /  2.9 km/h 21 % 0.00 in /  0 mm
17:34 99.9 °F /  37.7 °C 54.3 °F /  12.4 °C 29.62 in /  1002.9 hPa NW 1.2 mph /  1.9 km/h 0.5 mph /  0.8 km/h 22 % 0.00 in /  0 mm
17:39 100.0 °F /  37.8 °C 55.6 °F /  13.1 °C 29.62 in /  1002.9 hPa Calm     23 % 0.00 in /  0 mm
17:44 100.2 °F /  37.9 °C 51.9 °F /  11.1 °C 29.62 in /  1002.9 hPa West 1.2 mph /  1.9 km/h 1.0 mph /  1.6 km/h 20 % 0.00 in /  0 mm
17:49 100.2 °F /  37.9 °C 53.2 °F /  11.8 °C 29.62 in /  1002.9 hPa WNW 2.3 mph /  3.7 km/h 0.9 mph /  1.4 km/h 21 % 0.00 in /  0 mm
17:54 100.1 °F /  37.8 °C 54.4 °F /  12.4 °C 29.62 in /  1002.9 hPa West 1.2 mph /  1.9 km/h 0.4 mph /  0.6 km/h 22 % 0.00 in /  0 mm
17:59 100.5 °F /  38.1 °C 56.0 °F /  13.3 °C 29.61 in /  1002.6 hPa NW 2.0 mph /  3.2 km/h 1.5 mph /  2.4 km/h 23 % 0.00 in /  0 mm
18:04 100.2 °F /  37.9 °C 55.7 °F /  13.2 °C 29.62 in /  1002.9 hPa WNW 2.3 mph /  3.7 km/h 1.2 mph /  1.9 km/h 23 % 0.00 in /  0 mm
18:09 99.9 °F /  37.7 °C 56.7 °F /  13.7 °C 29.62 in /  1002.9 hPa NW 3.5 mph /  5.6 km/h 0.6 mph /  1 km/h 24 % 0.00 in /  0 mm
18:14 99.8 °F /  37.7 °C 56.6 °F /  13.7 °C 29.62 in /  1002.9 hPa WNW 1.2 mph /  1.9 km/h   24 % 0.00 in /  0 mm
18:19 99.7 °F /  37.6 °C 55.3 °F /  12.9 °C 29.62 in /  1002.9 hPa NW 2.3 mph /  3.7 km/h 1.4 mph /  2.3 km/h 23 % 0.00 in /  0 mm
18:24 99.3 °F /  37.4 °C 56.1 °F /  13.4 °C 29.62 in /  1002.9 hPa NW 2.3 mph /  3.7 km/h 1.0 mph /  1.6 km/h 24 % 0.00 in /  0 mm
18:29 99.2 °F /  37.3 °C 57.2 °F /  14 °C 29.62 in /  1002.9 hPa North 1.2 mph /  1.9 km/h 0.9 mph /  1.4 km/h 25 % 0.00 in /  0 mm
18:34 99.1 °F /  37.3 °C 57.1 °F /  13.9 °C 29.62 in /  1002.9 hPa North 2.0 mph /  3.2 km/h 0.9 mph /  1.4 km/h 25 % 0.00 in /  0 mm
18:39 98.9 °F /  37.2 °C 55.8 °F /  13.2 °C 29.62 in /  1002.9 hPa North 2.3 mph /  3.7 km/h 1.0 mph /  1.6 km/h 24 % 0.00 in /  0 mm
18:44 98.7 °F /  37.1 °C 57.9 °F /  14.4 °C 29.62 in /  1002.9 hPa WNW 1.2 mph /  1.9 km/h 0.2 mph /  0.3 km/h 26 % 0.00 in /  0 mm
18:49 98.5 °F /  36.9 °C 57.7 °F /  14.3 °C 29.62 in /  1002.9 hPa WNW 1.2 mph /  1.9 km/h 0.1 mph /  0.2 km/h 26 % 0.00 in /  0 mm
18:54 98.3 °F /  36.8 °C 58.6 °F /  14.8 °C 29.62 in /  1002.9 hPa WNW 1.2 mph /  1.9 km/h 0.1 mph /  0.2 km/h 27 % 0.00 in /  0 mm
18:59 97.7 °F /  36.5 °C 58.1 °F /  14.5 °C 29.62 in /  1002.9 hPa WNW 1.2 mph /  1.9 km/h 0.7 mph /  1.1 km/h 27 % 0.00 in /  0 mm
19:04 97.1 °F /  36.2 °C 56.5 °F /  13.6 °C 29.62 in /  1002.9 hPa NW 2.3 mph /  3.7 km/h 0.6 mph /  1 km/h 26 % 0.00 in /  0 mm
19:09 96.8 °F /  36 °C 58.3 °F /  14.6 °C 29.62 in /  1002.9 hPa WNW 1.2 mph /  1.9 km/h 0.3 mph /  0.5 km/h 28 % 0.00 in /  0 mm
19:14 97.0 °F /  36.1 °C 58.5 °F /  14.7 °C 29.62 in /  1002.9 hPa WNW 1.2 mph /  1.9 km/h 0.2 mph /  0.3 km/h 28 % 0.00 in /  0 mm
19:19 96.4 °F /  35.8 °C 59.0 °F /  15 °C 29.62 in /  1002.9 hPa NW 1.0 mph /  1.6 km/h 0.3 mph /  0.5 km/h 29 % 0.00 in /  0 mm
19:24 95.7 °F /  35.4 °C 60.2 °F /  15.7 °C 29.62 in /  1002.9 hPa WNW 1.2 mph /  1.9 km/h   31 % 0.00 in /  0 mm
19:29 95.1 °F /  35.1 °C 60.6 °F /  15.9 °C 29.61 in /  1002.6 hPa WNW 1.2 mph /  1.9 km/h   32 % 0.00 in /  0 mm
19:34 94.5 °F /  34.7 °C 61.0 °F /  16.1 °C 29.62 in /  1002.9 hPa Calm   0.1 mph /  0.2 km/h 33 % 0.00 in /  0 mm
19:39 94.0 °F /  34.4 °C 61.4 °F /  16.3 °C 29.62 in /  1002.9 hPa Calm   0.1 mph /  0.2 km/h 34 % 0.00 in /  0 mm
19:44 93.5 °F /  34.2 °C 61.7 °F /  16.5 °C 29.62 in /  1002.9 hPa WNW 1.2 mph /  1.9 km/h   35 % 0.00 in /  0 mm
19:49 93.1 °F /  33.9 °C 62.2 °F /  16.8 °C 29.62 in /  1002.9 hPa Calm     36 % 0.00 in /  0 mm
19:54 92.6 °F /  33.7 °C 61.7 °F /  16.5 °C 29.62 in /  1002.9 hPa Calm     36 % 0.00 in /  0 mm
19:59 92.1 °F /  33.4 °C 62.1 °F /  16.7 °C 29.62 in /  1002.9 hPa Calm     37 % 0.00 in /  0 mm
20:04 91.7 °F /  33.2 °C 61.7 °F /  16.5 °C 29.62 in /  1002.9 hPa Calm     37 % 0.00 in /  0 mm
20:09 91.3 °F /  32.9 °C 61.4 °F /  16.3 °C 29.62 in /  1002.9 hPa Calm     37 % 0.00 in /  0 mm
20:14 90.7 °F /  32.6 °C 63.1 °F /  17.3 °C 29.62 in /  1002.9 hPa Calm     40 % 0.00 in /  0 mm
20:19 90.1 °F /  32.3 °C 62.5 °F /  16.9 °C 29.62 in /  1002.9 hPa Calm     40 % 0.00 in /  0 mm
20:24 89.5 °F /  31.9 °C 62.0 °F /  16.7 °C 29.62 in /  1002.9 hPa Calm     40 % 0.00 in /  0 mm
20:29 89.0 °F /  31.7 °C 63.6 °F /  17.6 °C 29.62 in /  1002.9 hPa Calm     43 % 0.00 in /  0 mm
20:34 88.1 °F /  31.2 °C 64.1 °F /  17.8 °C 29.62 in /  1002.9 hPa Calm     45 % 0.00 in /  0 mm
20:39 87.4 °F /  30.8 °C 63.5 °F /  17.5 °C 29.62 in /  1002.9 hPa Calm     45 % 0.00 in /  0 mm
20:44 86.8 °F /  30.4 °C 64.2 °F /  17.9 °C 29.62 in /  1002.9 hPa Calm     47 % 0.00 in /  0 mm
20:49 86.3 °F /  30.2 °C 63.7 °F /  17.6 °C 29.62 in /  1002.9 hPa Calm     47 % 0.00 in /  0 mm
20:54 85.9 °F /  29.9 °C 65.1 °F /  18.4 °C 29.62 in /  1002.9 hPa Calm     50 % 0.00 in /  0 mm
20:59 85.6 °F /  29.8 °C 64.2 °F /  17.9 °C 29.62 in /  1002.9 hPa Calm     49 % 0.00 in /  0 mm
21:04 85.2 °F /  29.6 °C 66.1 °F /  18.9 °C 29.63 in /  1003.3 hPa Calm     53 % 0.00 in /  0 mm
21:09 84.5 °F /  29.2 °C 65.5 °F /  18.6 °C 29.63 in /  1003.3 hPa Calm     53 % 0.00 in /  0 mm
21:14 84.0 °F /  28.9 °C 64.5 °F /  18.1 °C 29.63 in /  1003.3 hPa Calm     52 % 0.00 in /  0 mm
21:19 83.6 °F /  28.7 °C 66.2 °F /  19 °C 29.63 in /  1003.3 hPa Calm     56 % 0.00 in /  0 mm
21:24 83.2 °F /  28.4 °C 65.4 °F /  18.6 °C 29.63 in /  1003.3 hPa Calm     55 % 0.00 in /  0 mm
21:29 82.8 °F /  28.2 °C 65.5 °F /  18.6 °C 29.63 in /  1003.3 hPa Calm     56 % 0.00 in /  0 mm
21:34 82.4 °F /  28 °C 66.1 °F /  18.9 °C 29.63 in /  1003.3 hPa Calm     58 % 0.00 in /  0 mm
21:39 81.9 °F /  27.7 °C 63.1 °F /  17.3 °C 29.63 in /  1003.3 hPa Calm     53 % 0.00 in /  0 mm
21:44 81.9 °F /  27.7 °C 64.7 °F /  18.2 °C 29.64 in /  1003.6 hPa Calm     56 % 0.00 in /  0 mm
21:49 81.6 °F /  27.6 °C 64.4 °F /  18 °C 29.64 in /  1003.6 hPa Calm     56 % 0.00 in /  0 mm
21:54 81.4 °F /  27.4 °C 64.7 °F /  18.2 °C 29.64 in /  1003.6 hPa Calm     57 % 0.00 in /  0 mm
21:59 81.1 °F /  27.3 °C 64.9 °F /  18.3 °C 29.64 in /  1003.6 hPa Calm     58 % 0.00 in /  0 mm
22:04 80.9 °F /  27.2 °C 64.2 °F /  17.9 °C 29.64 in /  1003.6 hPa Calm     57 % 0.00 in /  0 mm
22:09 80.8 °F /  27.1 °C 63.1 °F /  17.3 °C 29.64 in /  1003.6 hPa Calm     55 % 0.00 in /  0 mm
Park Place, Exeter, Tulare County, California, USA
Compliments of Weather Underground - 2.75 mb